createdAt,value
2022-08-23T00:02:39.911Z,1.48
2022-08-23T00:07:46.699Z,1.12
2022-08-23T00:12:49.663Z,1.57
2022-08-23T00:17:52.906Z,1.42
2022-08-23T00:22:57.692Z,1.40
2022-08-23T00:28:00.682Z,1.42
2022-08-23T00:33:07.221Z,1.20
2022-08-23T00:38:32.469Z,1.66
2022-08-23T00:43:57.621Z,1.92
2022-08-23T00:49:01.857Z,3.00
2022-08-23T00:54:09.772Z,3.76
2022-08-23T00:59:15.235Z,4.64
2022-08-23T01:04:18.740Z,6.32
2022-08-23T01:09:23.560Z,6.70
2022-08-23T01:14:32.514Z,5.67
2022-08-23T01:19:37.890Z,4.46
2022-08-23T01:25:06.210Z,4.93
2022-08-23T01:30:11.266Z,4.90
2022-08-23T01:35:14.858Z,4.51
2022-08-23T01:40:19.397Z,4.95
2022-08-23T01:45:22.677Z,4.48
2022-08-23T01:50:26.253Z,4.86
2022-08-23T01:55:30.984Z,4.40
2022-08-23T02:00:37.028Z,4.07
2022-08-23T02:05:40.644Z,4.38
2022-08-23T02:10:46.037Z,5.05
2022-08-23T02:15:51.604Z,5.91
2022-08-23T02:20:54.768Z,6.92
2022-08-23T02:25:59.449Z,6.63
2022-08-23T02:31:05.343Z,6.83
2022-08-23T02:36:08.977Z,7.81
2022-08-23T02:41:13.393Z,7.70
2022-08-23T02:46:16.307Z,7.45
2022-08-23T02:51:19.405Z,7.00
2022-08-23T02:56:23.860Z,6.73
2022-08-23T03:01:29.058Z,6.49
2022-08-23T03:06:32.437Z,6.40
2022-08-23T03:11:37.189Z,6.11
2022-08-23T03:16:40.666Z,6.01
2022-08-23T03:21:43.648Z,6.09
2022-08-23T03:26:49.163Z,5.76
2022-08-23T03:31:53.905Z,5.49
2022-08-23T03:36:56.899Z,5.83
2022-08-23T03:42:01.431Z,5.37
2022-08-23T03:47:06.208Z,5.61
2022-08-23T03:52:09.048Z,4.99
2022-08-23T03:57:13.674Z,5.57
2022-08-23T04:02:17.326Z,5.63
2022-08-23T04:07:21.137Z,5.28
2022-08-23T04:12:25.971Z,4.70
2022-08-23T04:17:32.435Z,4.66
2022-08-23T04:22:35.594Z,4.80
2022-08-23T04:27:39.869Z,4.92
2022-08-23T04:32:43.184Z,4.94
2022-08-23T04:37:49.024Z,5.12
2022-08-23T04:42:53.424Z,5.36
2022-08-23T04:47:56.512Z,5.28
2022-08-23T04:53:00.062Z,5.16
2022-08-23T04:58:04.646Z,4.77
2022-08-23T05:03:07.788Z,3.70
2022-08-23T05:08:10.737Z,3.24
2022-08-23T05:13:15.214Z,2.13
2022-08-23T05:18:18.711Z,2.06
2022-08-23T05:23:23.571Z,2.19
2022-08-23T05:28:37.650Z,2.09
2022-08-23T05:33:41.741Z,2.41
2022-08-23T05:38:47.414Z,2.13
2022-08-23T05:43:51.758Z,1.88
2022-08-23T05:48:54.999Z,1.13
2022-08-23T05:54:00.418Z,0.87
2022-08-23T05:59:12.362Z,0.70
2022-08-23T06:04:15.996Z,0.39
2022-08-23T06:09:19.694Z,1.07
2022-08-23T06:14:24.443Z,-0.23
2022-08-23T06:19:27.594Z,-0.47
2022-08-23T06:24:30.809Z,0.07
2022-08-23T06:29:35.426Z,-0.61
2022-08-23T06:34:39.113Z,-0.04
2022-08-23T06:39:43.809Z,0.26
2022-08-23T06:44:48.456Z,-0.45
2022-08-23T06:49:57.789Z,-0.34
2022-08-23T06:55:02.450Z,-0.97
2022-08-23T07:00:10.108Z,-1.33
2022-08-23T07:05:13.065Z,-1.17
2022-08-23T07:10:16.052Z,-1.79
2022-08-23T07:15:20.952Z,-2.70
2022-08-23T07:20:23.857Z,-2.53
2022-08-23T07:25:27.648Z,-3.02
2022-08-23T07:30:32.155Z,-2.83
2022-08-23T07:35:40.097Z,-2.80
2022-08-23T07:40:44.117Z,-2.02
2022-08-23T07:45:58.374Z,-1.67
2022-08-23T07:51:03.049Z,-1.86
2022-08-23T07:56:07.093Z,-1.48
2022-08-23T08:01:16.382Z,-1.35
2022-08-23T08:06:23.825Z,-1.36
2022-08-23T08:11:34.259Z,-1.55
2022-08-23T08:16:42.581Z,-1.57
2022-08-23T08:21:47.314Z,-1.80
2022-08-23T08:26:50.265Z,-2.01
2022-08-23T08:31:54.712Z,-2.38
2022-08-23T08:36:58.756Z,-2.64
2022-08-23T08:42:23.390Z,-2.53
2022-08-23T08:47:40.767Z,-3.31
2022-08-23T08:52:48.098Z,-4.37
2022-08-23T08:57:52.463Z,-5.24
2022-08-23T09:02:59.798Z,-5.44
2022-08-23T09:08:14.331Z,-5.82
2022-08-23T09:13:46.353Z,-5.67
2022-08-23T09:18:53.351Z,-5.38
2022-08-23T09:24:00.879Z,-5.06
2022-08-23T09:29:13.286Z,-4.95
2022-08-23T09:34:21.097Z,-5.95
2022-08-23T09:39:30.737Z,118.74
2022-08-23T09:44:39.937Z,117.99
2022-08-23T09:49:48.578Z,118.17
2022-08-23T09:54:56.764Z,118.59
2022-08-23T10:00:02.224Z,117.52
2022-08-23T10:05:18.625Z,116.41
2022-08-23T10:10:28.221Z,117.16
2022-08-23T10:15:52.351Z,116.68
2022-08-23T10:21:03.298Z,116.36
2022-08-23T10:26:07.207Z,114.73
2022-08-23T10:31:20.852Z,114.90
2022-08-23T10:36:34.050Z,114.14
2022-08-23T10:41:53.473Z,114.89
2022-08-23T10:47:10.559Z,114.13
2022-08-23T10:52:20.994Z,113.56
2022-08-23T10:57:29.127Z,114.03
2022-08-23T11:02:41.767Z,113.72
2022-08-23T11:07:57.733Z,115.09
2022-08-23T11:13:06.551Z,112.65
2022-08-23T11:18:10.989Z,114.42
2022-08-23T11:23:18.397Z,112.28
2022-08-23T11:28:39.932Z,112.08
2022-08-23T11:33:47.108Z,112.48
2022-08-23T11:39:10.981Z,112.05
2022-08-23T11:44:27.968Z,111.45
2022-08-23T11:49:58.267Z,112.21
2022-08-23T11:55:26.366Z,109.94
2022-08-23T12:01:03.180Z,110.15
2022-08-23T12:06:39.258Z,108.85
2022-08-23T12:12:24.435Z,109.30
2022-08-23T12:18:04.784Z,109.75
2022-08-23T12:23:18.037Z,107.79
2022-08-23T12:28:33.968Z,108.88
2022-08-23T12:33:49.978Z,109.02
2022-08-23T12:39:02.811Z,106.80
2022-08-23T12:44:09.918Z,106.43
2022-08-23T12:49:25.526Z,106.24
2022-08-23T12:54:38.682Z,107.08
2022-08-23T12:59:49.888Z,106.39
2022-08-23T13:04:54.524Z,104.73
2022-08-23T13:09:57.909Z,105.35
2022-08-23T13:15:05.001Z,105.08
2022-08-23T13:20:21.662Z,104.47
2022-08-23T13:25:29.527Z,105.19
2022-08-23T13:30:37.769Z,104.98
2022-08-23T13:35:44.450Z,104.74
2022-08-23T13:40:57.424Z,103.51
2022-08-23T13:46:12.767Z,103.16
2022-08-23T13:51:20.949Z,105.09
2022-08-23T13:56:24.786Z,104.29
2022-08-23T14:01:30.019Z,104.65
2022-08-23T14:06:33.405Z,106.92
2022-08-23T14:11:37.362Z,105.01
2022-08-23T14:16:42.067Z,105.53
2022-08-23T14:21:46.954Z,104.90
2022-08-23T14:26:52.244Z,105.27
2022-08-23T14:31:59.362Z,105.67
2022-08-23T14:42:25.778Z,104.70
2022-08-23T14:47:30.355Z,105.46
2022-08-23T14:52:33.723Z,102.87
2022-08-23T14:57:37.177Z,103.79
2022-08-23T15:02:43.252Z,104.00
2022-08-23T15:07:46.715Z,103.88
2022-08-23T15:13:01.915Z,106.30
2022-08-23T15:18:16.014Z,107.58
2022-08-23T15:23:19.080Z,107.82
2022-08-23T15:28:23.693Z,108.46
2022-08-23T15:33:30.806Z,109.55
2022-08-23T15:38:36.990Z,110.06
2022-08-23T15:43:40.545Z,111.81
2022-08-23T15:48:49.128Z,112.17
2022-08-23T15:53:52.365Z,112.70
2022-08-23T15:58:56.008Z,113.77
2022-08-23T16:04:02.058Z,117.08
2022-08-23T16:09:07.860Z,-5.19
2022-08-23T16:14:12.208Z,117.91
2022-08-23T16:19:17.011Z,116.18
2022-08-23T16:24:20.226Z,116.57
2022-08-23T16:29:32.341Z,116.70
2022-08-23T16:34:36.877Z,116.68
2022-08-23T16:39:40.992Z,118.49
2022-08-23T16:44:44.430Z,-2.14
2022-08-23T16:49:48.936Z,-3.35
2022-08-23T16:54:52.145Z,-1.75
2022-08-23T16:59:55.952Z,-0.45
2022-08-23T17:05:00.882Z,0.42
2022-08-23T17:10:04.604Z,2.02
2022-08-23T17:15:09.351Z,3.83
2022-08-23T17:20:14.965Z,4.54
2022-08-23T17:25:18.153Z,5.99
2022-08-23T17:30:23.499Z,6.47
2022-08-23T17:35:33.898Z,7.12
2022-08-23T17:40:40.206Z,7.82
2022-08-23T17:45:47.045Z,8.92
2022-08-23T17:50:51.936Z,9.17
2022-08-23T17:55:54.681Z,9.87
2022-08-23T18:00:57.886Z,10.41
2022-08-23T18:06:02.947Z,10.61
2022-08-23T18:11:20.923Z,11.17
2022-08-23T18:16:31.855Z,11.14
2022-08-23T18:21:40.532Z,11.59
2022-08-23T18:27:03.455Z,11.72
2022-08-23T18:32:08.717Z,12.02
2022-08-23T18:37:21.845Z,11.93
2022-08-23T18:42:25.417Z,12.25
2022-08-23T18:47:28.533Z,12.29
2022-08-23T18:52:33.223Z,12.45
2022-08-23T18:57:36.227Z,12.53
2022-08-23T19:02:39.608Z,12.72
2022-08-23T19:07:44.506Z,12.26
2022-08-23T19:12:51.854Z,12.25
2022-08-23T19:17:58.331Z,12.30
2022-08-23T19:23:02.856Z,12.00
2022-08-23T19:28:06.122Z,11.79
2022-08-23T19:33:08.949Z,11.41
2022-08-23T19:38:14.505Z,10.41
2022-08-23T19:43:18.350Z,9.92
2022-08-23T19:48:21.584Z,9.51
2022-08-23T19:53:26.618Z,8.95
2022-08-23T19:58:29.433Z,8.01
2022-08-23T20:03:32.516Z,7.30
2022-08-23T20:08:36.762Z,7.05
2022-08-23T20:13:39.905Z,6.55
2022-08-23T20:18:43.667Z,5.98
2022-08-23T20:24:02.232Z,5.65
2022-08-23T20:29:06.100Z,5.05
2022-08-23T20:34:10.479Z,4.99
2022-08-23T20:39:21.869Z,4.50
2022-08-23T20:44:26.923Z,4.01
2022-08-23T20:49:29.833Z,3.61
2022-08-23T20:54:39.049Z,3.29
2022-08-23T20:59:44.695Z,3.22
2022-08-23T21:04:48.531Z,3.34
2022-08-23T21:09:52.854Z,2.75
2022-08-23T21:14:56.988Z,2.53
2022-08-23T21:20:00.274Z,2.17
2022-08-23T21:25:05.510Z,1.88
2022-08-23T21:30:10.281Z,1.79
2022-08-23T21:35:14.071Z,0.73
2022-08-23T21:40:18.702Z,0.58
2022-08-23T21:45:22.004Z,0.24
2022-08-23T21:50:28.456Z,0.11
2022-08-23T21:55:36.184Z,-0.22
2022-08-23T22:00:41.437Z,-0.05
2022-08-23T22:05:45.633Z,-0.31
2022-08-23T22:10:57.445Z,0.25
2022-08-23T22:16:04.578Z,0.21
2022-08-23T22:21:07.614Z,0.37
2022-08-23T22:26:14.029Z,0.39
2022-08-23T22:31:17.185Z,0.46
2022-08-23T22:36:22.830Z,0.72
2022-08-23T22:41:29.743Z,1.14
2022-08-23T22:46:34.572Z,0.70
2022-08-23T22:51:37.673Z,0.98
2022-08-23T22:56:44.165Z,1.11
2022-08-23T23:01:49.757Z,1.25
2022-08-23T23:06:53.722Z,1.19
2022-08-23T23:11:58.182Z,1.31
2022-08-23T23:17:01.168Z,1.55
2022-08-23T23:22:06.113Z,1.39
2022-08-23T23:27:10.563Z,1.44
2022-08-23T23:32:13.430Z,1.17
2022-08-23T23:37:16.258Z,1.32
2022-08-23T23:42:20.571Z,1.56
2022-08-23T23:47:23.561Z,1.68
2022-08-23T23:52:26.602Z,1.81
2022-08-23T23:57:33.441Z,1.68
